sensor_id;sensor_type;location;lat;lon;timestamp;pressure;altitude;pressure_sealevel;temperature;humidity
33506;BME280;19843;51.040;13.782;2024-03-02T00:00:39;99306.63;;;13.33;81.08
33506;BME280;19843;51.040;13.782;2024-03-02T00:03:07;99304.97;;;13.25;81.06
33506;BME280;19843;51.040;13.782;2024-03-02T00:05:37;99302.16;;;13.25;80.77
33506;BME280;19843;51.040;13.782;2024-03-02T00:08:07;99298.72;;;13.42;80.19
33506;BME280;19843;51.040;13.782;2024-03-02T00:10:37;99297.69;;;13.61;78.98
33506;BME280;19843;51.040;13.782;2024-03-02T00:13:06;99287.63;;;13.56;79.51
33506;BME280;19843;51.040;13.782;2024-03-02T00:15:41;99290.88;;;13.58;79.41
33506;BME280;19843;51.040;13.782;2024-03-02T00:18:11;99299.16;;;13.48;79.43
33506;BME280;19843;51.040;13.782;2024-03-02T00:20:41;99293.16;;;13.46;79.47
33506;BME280;19843;51.040;13.782;2024-03-02T00:23:09;99290.38;;;13.49;78.94
33506;BME280;19843;51.040;13.782;2024-03-02T00:25:40;99286.34;;;13.47;78.95
33506;BME280;19843;51.040;13.782;2024-03-02T00:28:18;99288.03;;;13.55;79.89
33506;BME280;19843;51.040;13.782;2024-03-02T00:30:57;99285.22;;;13.55;78.71
33506;BME280;19843;51.040;13.782;2024-03-02T00:33:31;99291.84;;;13.36;80.40
33506;BME280;19843;51.040;13.782;2024-03-02T00:36:00;99288.28;;;13.39;79.42
33506;BME280;19843;51.040;13.782;2024-03-02T00:38:29;99291.69;;;13.63;79.43
33506;BME280;19843;51.040;13.782;2024-03-02T00:40:58;99291.59;;;13.52;79.15
33506;BME280;19843;51.040;13.782;2024-03-02T00:43:43;99295.63;;;13.54;78.60
33506;BME280;19843;51.040;13.782;2024-03-02T00:46:16;99296.88;;;13.61;79.13
33506;BME280;19843;51.040;13.782;2024-03-02T00:48:51;99294.94;;;13.68;78.32
33506;BME280;19843;51.040;13.782;2024-03-02T00:51:23;99303.84;;;13.77;78.18
33506;BME280;19843;51.040;13.782;2024-03-02T00:53:51;99295.78;;;13.76;78.04
33506;BME280;19843;51.040;13.782;2024-03-02T00:56:22;99300.13;;;13.66;78.48
33506;BME280;19843;51.040;13.782;2024-03-02T00:58:49;99303.75;;;13.70;78.44
33506;BME280;19843;51.040;13.782;2024-03-02T01:01:17;99303.00;;;13.73;78.16
33506;BME280;19843;51.040;13.782;2024-03-02T01:03:46;99298.59;;;13.72;78.45
33506;BME280;19843;51.040;13.782;2024-03-02T01:06:14;99297.31;;;13.66;78.45
33506;BME280;19843;51.040;13.782;2024-03-02T01:08:43;99295.88;;;13.87;77.24
33506;BME280;19843;51.040;13.782;2024-03-02T01:11:10;99289.91;;;13.92;77.16
33506;BME280;19843;51.040;13.782;2024-03-02T01:13:38;99286.09;;;13.63;79.29
33506;BME280;19843;51.040;13.782;2024-03-02T01:16:06;99279.69;;;13.66;78.99
33506;BME280;19843;51.040;13.782;2024-03-02T01:18:33;99280.41;;;13.55;79.19
33506;BME280;19843;51.040;13.782;2024-03-02T01:21:01;99285.25;;;13.58;78.61
33506;BME280;19843;51.040;13.782;2024-03-02T01:23:28;99275.44;;;13.38;80.17
33506;BME280;19843;51.040;13.782;2024-03-02T01:25:57;99277.81;;;13.32;80.61
33506;BME280;19843;51.040;13.782;2024-03-02T01:28:24;99282.19;;;13.30;80.14
33506;BME280;19843;51.040;13.782;2024-03-02T01:30:52;99285.38;;;13.28;81.11
33506;BME280;19843;51.040;13.782;2024-03-02T01:33:20;99281.94;;;13.46;80.31
33506;BME280;19843;51.040;13.782;2024-03-02T01:35:47;99285.94;;;13.45;79.62
33506;BME280;19843;51.040;13.782;2024-03-02T01:38:15;99285.28;;;13.66;78.68
33506;BME280;19843;51.040;13.782;2024-03-02T01:40:42;99284.09;;;13.67;78.64
33506;BME280;19843;51.040;13.782;2024-03-02T01:43:12;99290.16;;;13.72;77.96
33506;BME280;19843;51.040;13.782;2024-03-02T01:45:40;99290.44;;;13.56;78.67
33506;BME280;19843;51.040;13.782;2024-03-02T01:48:07;99286.97;;;13.74;78.06
33506;BME280;19843;51.040;13.782;2024-03-02T01:50:35;99290.19;;;13.76;77.96
33506;BME280;19843;51.040;13.782;2024-03-02T01:53:03;99282.22;;;13.85;77.38
33506;BME280;19843;51.040;13.782;2024-03-02T01:55:31;99290.69;;;13.89;77.29
33506;BME280;19843;51.040;13.782;2024-03-02T01:57:59;99283.44;;;13.84;77.33
33506;BME280;19843;51.040;13.782;2024-03-02T02:00:28;99277.50;;;13.93;76.96
33506;BME280;19843;51.040;13.782;2024-03-02T02:02:56;99269.03;;;13.89;77.39
33506;BME280;19843;51.040;13.782;2024-03-02T02:05:24;99275.81;;;13.84;77.51
33506;BME280;19843;51.040;13.782;2024-03-02T02:07:52;99269.47;;;13.40;79.58
33506;BME280;19843;51.040;13.782;2024-03-02T02:10:19;99267.63;;;13.62;79.01
33506;BME280;19843;51.040;13.782;2024-03-02T02:12:46;99264.47;;;13.67;78.49
33506;BME280;19843;51.040;13.782;2024-03-02T02:15:27;99270.94;;;13.26;80.45
33506;BME280;19843;51.040;13.782;2024-03-02T02:17:57;99259.38;;;12.94;81.55
33506;BME280;19843;51.040;13.782;2024-03-02T02:20:26;99264.34;;;13.52;79.57
33506;BME280;19843;51.040;13.782;2024-03-02T02:22:56;99270.84;;;13.60;78.75
33506;BME280;19843;51.040;13.782;2024-03-02T02:25:23;99270.06;;;13.63;78.44
33506;BME280;19843;51.040;13.782;2024-03-02T02:27:51;99272.94;;;13.74;78.10
33506;BME280;19843;51.040;13.782;2024-03-02T02:30:20;99273.13;;;13.47;79.15
33506;BME280;19843;51.040;13.782;2024-03-02T02:32:48;99268.03;;;13.60;78.35
33506;BME280;19843;51.040;13.782;2024-03-02T02:35:16;99272.06;;;13.66;78.37
33506;BME280;19843;51.040;13.782;2024-03-02T02:37:44;99270.16;;;13.74;77.87
33506;BME280;19843;51.040;13.782;2024-03-02T02:40:14;99272.19;;;13.80;77.35
33506;BME280;19843;51.040;13.782;2024-03-02T02:42:42;99271.00;;;13.81;77.27
33506;BME280;19843;51.040;13.782;2024-03-02T02:45:09;99266.56;;;13.80;77.14
33506;BME280;19843;51.040;13.782;2024-03-02T02:47:39;99263.75;;;13.77;77.60
33506;BME280;19843;51.040;13.782;2024-03-02T02:50:07;99266.91;;;13.72;77.42
33506;BME280;19843;51.040;13.782;2024-03-02T02:52:36;99264.97;;;13.79;76.87
33506;BME280;19843;51.040;13.782;2024-03-02T02:55:07;99265.78;;;13.80;76.92
33506;BME280;19843;51.040;13.782;2024-03-02T02:57:38;99265.50;;;13.99;75.91
33506;BME280;19843;51.040;13.782;2024-03-02T03:00:07;99267.88;;;13.94;76.27
33506;BME280;19843;51.040;13.782;2024-03-02T03:02:40;99266.34;;;14.03;75.85
33506;BME280;19843;51.040;13.782;2024-03-02T03:05:09;99256.94;;;13.78;76.64
33506;BME280;19843;51.040;13.782;2024-03-02T03:07:37;99258.97;;;13.81;76.69
33506;BME280;19843;51.040;13.782;2024-03-02T03:10:07;99262.25;;;13.94;76.33
33506;BME280;19843;51.040;13.782;2024-03-02T03:12:36;99257.47;;;13.98;75.92
33506;BME280;19843;51.040;13.782;2024-03-02T03:15:05;99259.66;;;13.67;76.54
33506;BME280;19843;51.040;13.782;2024-03-02T03:17:33;99263.66;;;13.66;76.92
33506;BME280;19843;51.040;13.782;2024-03-02T03:20:01;99256.69;;;13.97;75.92
33506;BME280;19843;51.040;13.782;2024-03-02T03:22:30;99259.78;;;13.85;76.13
33506;BME280;19843;51.040;13.782;2024-03-02T03:24:58;99256.19;;;13.84;76.18
33506;BME280;19843;51.040;13.782;2024-03-02T03:27:26;99268.13;;;13.74;77.03
33506;BME280;19843;51.040;13.782;2024-03-02T03:29:55;99260.75;;;13.52;77.29
33506;BME280;19843;51.040;13.782;2024-03-02T03:32:22;99259.28;;;13.69;77.34
33506;BME280;19843;51.040;13.782;2024-03-02T03:34:51;99270.16;;;13.74;76.65
33506;BME280;19843;51.040;13.782;2024-03-02T03:37:18;99267.88;;;13.42;77.59
33506;BME280;19843;51.040;13.782;2024-03-02T03:39:46;99263.94;;;13.50;78.04
33506;BME280;19843;51.040;13.782;2024-03-02T03:42:13;99256.25;;;13.40;78.57
33506;BME280;19843;51.040;13.782;2024-03-02T03:44:41;99264.78;;;13.54;78.09
33506;BME280;19843;51.040;13.782;2024-03-02T03:47:09;99257.28;;;13.69;77.03
33506;BME280;19843;51.040;13.782;2024-03-02T03:49:37;99257.16;;;13.51;78.04
33506;BME280;19843;51.040;13.782;2024-03-02T03:52:04;99255.25;;;13.63;77.30
33506;BME280;19843;51.040;13.782;2024-03-02T03:54:32;99254.31;;;13.48;77.80
33506;BME280;19843;51.040;13.782;2024-03-02T03:56:59;99249.25;;;13.64;77.13
33506;BME280;19843;51.040;13.782;2024-03-02T03:59:27;99235.63;;;13.66;76.56
33506;BME280;19843;51.040;13.782;2024-03-02T04:01:54;99242.75;;;13.56;77.14
33506;BME280;19843;51.040;13.782;2024-03-02T04:04:23;99264.72;;;13.44;77.13
33506;BME280;19843;51.040;13.782;2024-03-02T04:06:50;99255.69;;;13.24;79.00
33506;BME280;19843;51.040;13.782;2024-03-02T04:09:18;99256.31;;;13.47;77.57
33506;BME280;19843;51.040;13.782;2024-03-02T04:11:45;99267.09;;;13.04;80.09
33506;BME280;19843;51.040;13.782;2024-03-02T04:14:13;99267.38;;;12.92;80.13
33506;BME280;19843;51.040;13.782;2024-03-02T04:16:40;99277.59;;;13.15;79.92
33506;BME280;19843;51.040;13.782;2024-03-02T04:19:08;99272.84;;;13.19;79.48
33506;BME280;19843;51.040;13.782;2024-03-02T04:21:36;99277.06;;;13.39;78.63
33506;BME280;19843;51.040;13.782;2024-03-02T04:24:05;99275.22;;;13.57;77.42
33506;BME280;19843;51.040;13.782;2024-03-02T04:26:32;99274.81;;;13.55;77.42
33506;BME280;19843;51.040;13.782;2024-03-02T04:28:59;99270.34;;;13.06;79.25
33506;BME280;19843;51.040;13.782;2024-03-02T04:31:28;99259.78;;;12.93;80.58
33506;BME280;19843;51.040;13.782;2024-03-02T04:33:56;99272.50;;;13.24;79.32
33506;BME280;19843;51.040;13.782;2024-03-02T04:36:23;99281.81;;;13.31;78.64
33506;BME280;19843;51.040;13.782;2024-03-02T04:38:52;99271.66;;;13.20;79.23
33506;BME280;19843;51.040;13.782;2024-03-02T04:41:19;99283.81;;;13.31;78.64
33506;BME280;19843;51.040;13.782;2024-03-02T04:43:47;99280.69;;;13.43;77.88
33506;BME280;19843;51.040;13.782;2024-03-02T04:46:14;99289.22;;;13.57;77.17
33506;BME280;19843;51.040;13.782;2024-03-02T04:48:42;99295.50;;;13.40;78.07
33506;BME280;19843;51.040;13.782;2024-03-02T04:51:09;99290.75;;;13.48;77.45
33506;BME280;19843;51.040;13.782;2024-03-02T04:53:37;99296.78;;;13.13;79.19
33506;BME280;19843;51.040;13.782;2024-03-02T04:56:06;99301.84;;;12.96;80.31
33506;BME280;19843;51.040;13.782;2024-03-02T04:58:51;99302.72;;;13.41;78.21
33506;BME280;19843;51.040;13.782;2024-03-02T05:01:18;99299.91;;;13.41;78.43
33506;BME280;19843;51.040;13.782;2024-03-02T05:03:46;99302.00;;;13.51;77.41
33506;BME280;19843;51.040;13.782;2024-03-02T05:06:13;99298.66;;;13.39;78.44
33506;BME280;19843;51.040;13.782;2024-03-02T05:08:41;99308.00;;;13.50;78.18
33506;BME280;19843;51.040;13.782;2024-03-02T05:11:12;99319.97;;;13.47;77.92
33506;BME280;19843;51.040;13.782;2024-03-02T05:14:05;99318.47;;;13.19;79.69
33506;BME280;19843;51.040;13.782;2024-03-02T05:16:33;99323.09;;;13.35;79.04
33506;BME280;19843;51.040;13.782;2024-03-02T05:19:01;99331.09;;;13.36;78.77
33506;BME280;19843;51.040;13.782;2024-03-02T05:21:28;99330.41;;;13.13;79.93
33506;BME280;19843;51.040;13.782;2024-03-02T05:23:56;99333.25;;;13.50;77.95
33506;BME280;19843;51.040;13.782;2024-03-02T05:26:25;99333.63;;;13.48;77.74
33506;BME280;19843;51.040;13.782;2024-03-02T05:28:53;99336.81;;;13.47;77.48
33506;BME280;19843;51.040;13.782;2024-03-02T05:31:20;99336.34;;;13.41;78.05
33506;BME280;19843;51.040;13.782;2024-03-02T05:33:48;99332.88;;;13.55;77.30
33506;BME280;19843;51.040;13.782;2024-03-02T05:36:20;99331.22;;;13.50;76.99
33506;BME280;19843;51.040;13.782;2024-03-02T05:38:47;99338.75;;;13.39;76.91
33506;BME280;19843;51.040;13.782;2024-03-02T05:41:15;99337.72;;;13.58;76.20
33506;BME280;19843;51.040;13.782;2024-03-02T05:43:44;99350.09;;;13.53;76.22
33506;BME280;19843;51.040;13.782;2024-03-02T05:46:11;99345.78;;;13.22;77.03
33506;BME280;19843;51.040;13.782;2024-03-02T05:48:39;99341.97;;;13.41;76.67
33506;BME280;19843;51.040;13.782;2024-03-02T05:51:06;99352.47;;;13.51;75.99
33506;BME280;19843;51.040;13.782;2024-03-02T05:53:34;99353.97;;;13.42;76.35
33506;BME280;19843;51.040;13.782;2024-03-02T05:56:04;99367.31;;;13.55;75.71
33506;BME280;19843;51.040;13.782;2024-03-02T05:58:32;99362.13;;;13.57;75.76
33506;BME280;19843;51.040;13.782;2024-03-02T06:01:13;99359.41;;;13.65;75.21
33506;BME280;19843;51.040;13.782;2024-03-02T06:03:41;99373.06;;;13.70;75.02
33506;BME280;19843;51.040;13.782;2024-03-02T06:06:09;99375.56;;;13.78;74.81
33506;BME280;19843;51.040;13.782;2024-03-02T06:08:36;99382.72;;;13.72;75.03
33506;BME280;19843;51.040;13.782;2024-03-02T06:11:04;99378.31;;;13.75;74.91
33506;BME280;19843;51.040;13.782;2024-03-02T06:13:31;99387.44;;;13.65;75.06
33506;BME280;19843;51.040;13.782;2024-03-02T06:15:59;99389.34;;;13.53;75.53
33506;BME280;19843;51.040;13.782;2024-03-02T06:18:27;99394.66;;;13.66;74.63
33506;BME280;19843;51.040;13.782;2024-03-02T06:20:55;99390.44;;;13.82;74.36
33506;BME280;19843;51.040;13.782;2024-03-02T06:23:22;99393.81;;;13.62;74.55
33506;BME280;19843;51.040;13.782;2024-03-02T06:25:50;99395.16;;;13.38;75.50
33506;BME280;19843;51.040;13.782;2024-03-02T06:28:17;99400.41;;;13.39;75.27
33506;BME280;19843;51.040;13.782;2024-03-02T06:30:45;99398.81;;;13.42;75.33
33506;BME280;19843;51.040;13.782;2024-03-02T06:33:12;99391.84;;;13.25;76.07
33506;BME280;19843;51.040;13.782;2024-03-02T06:35:41;99391.31;;;13.49;75.17
33506;BME280;19843;51.040;13.782;2024-03-02T06:38:08;99391.41;;;13.23;75.95
33506;BME280;19843;51.040;13.782;2024-03-02T06:40:36;99400.91;;;13.48;75.30
33506;BME280;19843;51.040;13.782;2024-03-02T06:43:04;99406.97;;;13.54;74.85
33506;BME280;19843;51.040;13.782;2024-03-02T06:45:32;99402.31;;;13.31;75.16
33506;BME280;19843;51.040;13.782;2024-03-02T06:48:00;99407.53;;;13.33;75.29
33506;BME280;19843;51.040;13.782;2024-03-02T06:50:28;99414.81;;;13.78;73.59
33506;BME280;19843;51.040;13.782;2024-03-02T06:52:57;99417.75;;;13.48;74.77
33506;BME280;19843;51.040;13.782;2024-03-02T06:55:24;99419.00;;;13.54;74.47
33506;BME280;19843;51.040;13.782;2024-03-02T06:57:52;99432.06;;;13.80;73.34
33506;BME280;19843;51.040;13.782;2024-03-02T07:00:20;99424.25;;;13.60;73.80
33506;BME280;19843;51.040;13.782;2024-03-02T07:02:47;99423.16;;;13.68;73.17
33506;BME280;19843;51.040;13.782;2024-03-02T07:05:16;99431.41;;;13.53;74.16
33506;BME280;19843;51.040;13.782;2024-03-02T07:07:43;99437.63;;;13.73;73.08
33506;BME280;19843;51.040;13.782;2024-03-02T07:10:12;99434.25;;;13.23;74.85
33506;BME280;19843;51.040;13.782;2024-03-02T07:12:39;99442.03;;;13.74;73.05
33506;BME280;19843;51.040;13.782;2024-03-02T07:15:08;99440.47;;;13.77;72.42
33506;BME280;19843;51.040;13.782;2024-03-02T07:17:45;99434.75;;;13.32;73.82
33506;BME280;19843;51.040;13.782;2024-03-02T07:20:12;99439.22;;;13.74;72.79
33506;BME280;19843;51.040;13.782;2024-03-02T07:22:40;99441.28;;;13.81;72.52
33506;BME280;19843;51.040;13.782;2024-03-02T07:25:11;99445.25;;;13.76;72.07
33506;BME280;19843;51.040;13.782;2024-03-02T07:27:42;99447.78;;;13.89;71.74
33506;BME280;19843;51.040;13.782;2024-03-02T07:30:13;99435.34;;;13.90;72.14
33506;BME280;19843;51.040;13.782;2024-03-02T07:32:42;99442.63;;;13.94;71.96
33506;BME280;19843;51.040;13.782;2024-03-02T07:35:12;99450.09;;;13.79;72.78
33506;BME280;19843;51.040;13.782;2024-03-02T07:37:41;99455.53;;;13.28;74.28
33506;BME280;19843;51.040;13.782;2024-03-02T07:40:10;99451.03;;;13.53;73.40
33506;BME280;19843;51.040;13.782;2024-03-02T07:42:39;99453.84;;;13.94;72.33
33506;BME280;19843;51.040;13.782;2024-03-02T07:45:08;99457.88;;;13.97;71.89
33506;BME280;19843;51.040;13.782;2024-03-02T07:47:36;99467.19;;;14.08;71.50
33506;BME280;19843;51.040;13.782;2024-03-02T07:50:04;99459.31;;;13.80;71.90
33506;BME280;19843;51.040;13.782;2024-03-02T07:52:33;99459.41;;;13.87;72.29
33506;BME280;19843;51.040;13.782;2024-03-02T07:55:00;99475.44;;;13.90;72.10
33506;BME280;19843;51.040;13.782;2024-03-02T07:57:28;99490.75;;;14.00;72.20
33506;BME280;19843;51.040;13.782;2024-03-02T07:59:57;99485.66;;;14.09;71.71
33506;BME280;19843;51.040;13.782;2024-03-02T08:02:26;99493.00;;;13.83;72.26
33506;BME280;19843;51.040;13.782;2024-03-02T08:04:53;99481.25;;;13.71;72.75
33506;BME280;19843;51.040;13.782;2024-03-02T08:07:21;99481.66;;;13.69;72.40
33506;BME280;19843;51.040;13.782;2024-03-02T08:09:48;99478.63;;;13.89;72.22
33506;BME280;19843;51.040;13.782;2024-03-02T08:12:16;99478.75;;;13.99;71.67
33506;BME280;19843;51.040;13.782;2024-03-02T08:14:44;99493.81;;;13.84;72.19
33506;BME280;19843;51.040;13.782;2024-03-02T08:17:13;99482.59;;;13.84;71.89
33506;BME280;19843;51.040;13.782;2024-03-02T08:19:41;99493.78;;;13.80;71.88
33506;BME280;19843;51.040;13.782;2024-03-02T08:22:08;99496.50;;;13.73;72.15
33506;BME280;19843;51.040;13.782;2024-03-02T08:24:36;99494.25;;;13.52;73.18
33506;BME280;19843;51.040;13.782;2024-03-02T08:27:04;99490.41;;;13.64;72.50
33506;BME280;19843;51.040;13.782;2024-03-02T08:29:31;99498.13;;;13.74;72.06
33506;BME280;19843;51.040;13.782;2024-03-02T08:31:59;99500.69;;;13.90;71.45
33506;BME280;19843;51.040;13.782;2024-03-02T08:34:27;99497.16;;;13.97;70.84
33506;BME280;19843;51.040;13.782;2024-03-02T08:36:55;99516.03;;;14.00;70.25
33506;BME280;19843;51.040;13.782;2024-03-02T08:39:22;99503.44;;;13.83;71.00
33506;BME280;19843;51.040;13.782;2024-03-02T08:41:50;99511.22;;;13.63;71.80
33506;BME280;19843;51.040;13.782;2024-03-02T08:44:18;99516.09;;;13.70;71.57
33506;BME280;19843;51.040;13.782;2024-03-02T08:46:45;99518.56;;;13.75;71.62
33506;BME280;19843;51.040;13.782;2024-03-02T08:49:13;99514.69;;;13.53;71.69
33506;BME280;19843;51.040;13.782;2024-03-02T08:51:42;99518.09;;;14.06;70.77
33506;BME280;19843;51.040;13.782;2024-03-02T08:54:10;99508.00;;;13.98;70.25
33506;BME280;19843;51.040;13.782;2024-03-02T08:56:37;99498.28;;;13.89;70.68
33506;BME280;19843;51.040;13.782;2024-03-02T08:59:05;99500.78;;;13.60;72.11
33506;BME280;19843;51.040;13.782;2024-03-02T09:01:32;99492.13;;;14.61;68.71
33506;BME280;19843;51.040;13.782;2024-03-02T09:04:00;99494.56;;;14.63;68.88
33506;BME280;19843;51.040;13.782;2024-03-02T09:06:27;99500.78;;;13.97;70.89
33506;BME280;19843;51.040;13.782;2024-03-02T09:08:56;99506.22;;;14.24;69.83
33506;BME280;19843;51.040;13.782;2024-03-02T09:11:24;99503.63;;;14.97;67.44
33506;BME280;19843;51.040;13.782;2024-03-02T09:13:51;99497.16;;;14.93;66.94
33506;BME280;19843;51.040;13.782;2024-03-02T09:16:19;99502.91;;;15.10;66.95
33506;BME280;19843;51.040;13.782;2024-03-02T09:18:47;99508.06;;;15.01;67.13
33506;BME280;19843;51.040;13.782;2024-03-02T09:21:14;99510.81;;;14.94;66.78
33506;BME280;19843;51.040;13.782;2024-03-02T09:23:42;99501.97;;;15.69;64.68
33506;BME280;19843;51.040;13.782;2024-03-02T09:26:13;99516.69;;;15.37;65.48
33506;BME280;19843;51.040;13.782;2024-03-02T09:28:42;99512.38;;;15.57;64.99
33506;BME280;19843;51.040;13.782;2024-03-02T09:31:10;99527.47;;;15.28;65.27
33506;BME280;19843;51.040;13.782;2024-03-02T09:33:38;99513.03;;;15.26;65.12
33506;BME280;19843;51.040;13.782;2024-03-02T09:36:16;99524.03;;;14.39;67.52
33506;BME280;19843;51.040;13.782;2024-03-02T09:38:44;99527.69;;;14.94;66.91
33506;BME280;19843;51.040;13.782;2024-03-02T09:41:14;99534.28;;;15.20;65.72
33506;BME280;19843;51.040;13.782;2024-03-02T09:43:41;99530.47;;;14.87;66.42
33506;BME280;19843;51.040;13.782;2024-03-02T09:46:09;99534.06;;;14.88;66.22
33506;BME280;19843;51.040;13.782;2024-03-02T09:48:37;99533.91;;;14.66;66.82
33506;BME280;19843;51.040;13.782;2024-03-02T09:51:05;99538.63;;;15.06;65.94
33506;BME280;19843;51.040;13.782;2024-03-02T09:53:33;99535.00;;;15.06;65.89
33506;BME280;19843;51.040;13.782;2024-03-02T09:56:01;99534.25;;;15.16;65.75
33506;BME280;19843;51.040;13.782;2024-03-02T09:58:30;99532.47;;;14.87;66.11
33506;BME280;19843;51.040;13.782;2024-03-02T10:00:58;99533.50;;;14.64;66.38
33506;BME280;19843;51.040;13.782;2024-03-02T10:03:26;99530.31;;;14.69;66.08
33506;BME280;19843;51.040;13.782;2024-03-02T10:05:56;99533.56;;;14.75;66.24
33506;BME280;19843;51.040;13.782;2024-03-02T10:08:23;99524.03;;;14.87;65.19
33506;BME280;19843;51.040;13.782;2024-03-02T10:10:51;99528.22;;;15.18;65.04
33506;BME280;19843;51.040;13.782;2024-03-02T10:13:18;99516.91;;;15.03;65.08
33506;BME280;19843;51.040;13.782;2024-03-02T10:15:47;99516.66;;;15.30;64.75
33506;BME280;19843;51.040;13.782;2024-03-02T10:18:26;99509.78;;;15.24;64.69
33506;BME280;19843;51.040;13.782;2024-03-02T10:20:54;99511.97;;;15.62;63.76
33506;BME280;19843;51.040;13.782;2024-03-02T10:23:21;99512.84;;;14.46;66.54
33506;BME280;19843;51.040;13.782;2024-03-02T10:25:51;99515.91;;;15.40;63.85
33506;BME280;19843;51.040;13.782;2024-03-02T10:28:24;99510.06;;;15.04;64.51
33506;BME280;19843;51.040;13.782;2024-03-02T10:30:55;99497.06;;;15.51;63.46
33506;BME280;19843;51.040;13.782;2024-03-02T10:33:24;99506.91;;;16.32;60.92
33506;BME280;19843;51.040;13.782;2024-03-02T10:35:51;99496.06;;;16.27;61.61
33506;BME280;19843;51.040;13.782;2024-03-02T10:38:19;99489.63;;;16.52;59.99
33506;BME280;19843;51.040;13.782;2024-03-02T10:40:47;99488.81;;;16.51;60.49
33506;BME280;19843;51.040;13.782;2024-03-02T10:43:15;99487.22;;;16.64;58.75
33506;BME280;19843;51.040;13.782;2024-03-02T10:45:44;99482.38;;;16.11;60.65
33506;BME280;19843;51.040;13.782;2024-03-02T10:48:14;99480.28;;;17.15;58.82
33506;BME280;19843;51.040;13.782;2024-03-02T10:50:42;99477.53;;;17.01;57.73
33506;BME280;19843;51.040;13.782;2024-03-02T10:53:09;99468.22;;;17.19;56.58
33506;BME280;19843;51.040;13.782;2024-03-02T10:55:37;99461.13;;;17.73;55.76
33506;BME280;19843;51.040;13.782;2024-03-02T10:58:06;99459.63;;;18.17;54.36
33506;BME280;19843;51.040;13.782;2024-03-02T11:00:34;99461.16;;;18.77;52.96
33506;BME280;19843;51.040;13.782;2024-03-02T11:03:05;99461.19;;;18.22;53.95
33506;BME280;19843;51.040;13.782;2024-03-02T11:05:37;99459.63;;;18.17;53.03
33506;BME280;19843;51.040;13.782;2024-03-02T11:08:07;99467.03;;;18.52;52.27
33506;BME280;19843;51.040;13.782;2024-03-02T11:10:35;99458.22;;;17.91;54.77
33506;BME280;19843;51.040;13.782;2024-03-02T11:13:05;99461.44;;;16.91;56.35
33506;BME280;19843;51.040;13.782;2024-03-02T11:15:36;99458.81;;;18.65;53.58
33506;BME280;19843;51.040;13.782;2024-03-02T11:18:06;99455.22;;;18.12;53.90
33506;BME280;19843;51.040;13.782;2024-03-02T11:20:38;99454.91;;;17.15;57.37
33506;BME280;19843;51.040;13.782;2024-03-02T11:23:07;99459.22;;;17.45;56.21
33506;BME280;19843;51.040;13.782;2024-03-02T11:25:35;99454.53;;;17.98;54.41
33506;BME280;19843;51.040;13.782;2024-03-02T11:28:05;99465.44;;;17.01;57.15
33506;BME280;19843;51.040;13.782;2024-03-02T11:30:51;99463.63;;;17.53;54.66
33506;BME280;19843;51.040;13.782;2024-03-02T11:33:24;99462.53;;;18.10;52.50
33506;BME280;19843;51.040;13.782;2024-03-02T11:35:56;99463.47;;;16.91;54.46
33506;BME280;19843;51.040;13.782;2024-03-02T11:38:31;99454.50;;;18.01;52.17
33506;BME280;19843;51.040;13.782;2024-03-02T11:41:00;99455.31;;;17.98;51.90
33506;BME280;19843;51.040;13.782;2024-03-02T11:43:29;99454.06;;;18.06;51.65
33506;BME280;19843;51.040;13.782;2024-03-02T11:45:57;99451.66;;;18.05;52.28
33506;BME280;19843;51.040;13.782;2024-03-02T11:48:26;99445.53;;;18.13;51.74
33506;BME280;19843;51.040;13.782;2024-03-02T11:50:58;99451.94;;;18.21;51.65
33506;BME280;19843;51.040;13.782;2024-03-02T11:53:27;99446.78;;;17.32;53.52
33506;BME280;19843;51.040;13.782;2024-03-02T11:55:58;99445.81;;;17.67;52.46
33506;BME280;19843;51.040;13.782;2024-03-02T11:58:27;99449.34;;;16.94;53.98
33506;BME280;19843;51.040;13.782;2024-03-02T12:00:55;99441.41;;;17.66;52.21
33506;BME280;19843;51.040;13.782;2024-03-02T12:03:25;99446.19;;;17.69;52.13
33506;BME280;19843;51.040;13.782;2024-03-02T12:05:55;99450.69;;;17.59;52.48
33506;BME280;19843;51.040;13.782;2024-03-02T12:08:22;99449.53;;;17.53;52.50
33506;BME280;19843;51.040;13.782;2024-03-02T12:10:56;99446.56;;;16.55;54.54
33506;BME280;19843;51.040;13.782;2024-03-02T12:13:24;99444.31;;;17.45;53.33
33506;BME280;19843;51.040;13.782;2024-03-02T12:15:53;99441.66;;;16.98;54.25
33506;BME280;19843;51.040;13.782;2024-03-02T12:18:22;99440.44;;;17.06;54.11
33506;BME280;19843;51.040;13.782;2024-03-02T12:20:50;99442.13;;;16.75;54.55
33506;BME280;19843;51.040;13.782;2024-03-02T12:23:20;99452.97;;;16.66;55.08
33506;BME280;19843;51.040;13.782;2024-03-02T12:25:48;99451.81;;;15.96;55.23
33506;BME280;19843;51.040;13.782;2024-03-02T12:28:16;99442.16;;;16.00;56.75
33506;BME280;19843;51.040;13.782;2024-03-02T12:30:44;99442.94;;;16.08;56.16
33506;BME280;19843;51.040;13.782;2024-03-02T12:33:11;99440.53;;;16.42;55.20
33506;BME280;19843;51.040;13.782;2024-03-02T12:35:40;99442.56;;;16.34;55.39
33506;BME280;19843;51.040;13.782;2024-03-02T12:38:07;99442.16;;;15.97;56.35
33506;BME280;19843;51.040;13.782;2024-03-02T12:40:36;99441.72;;;15.84;57.05
33506;BME280;19843;51.040;13.782;2024-03-02T12:43:05;99434.84;;;15.64;56.88
33506;BME280;19843;51.040;13.782;2024-03-02T12:45:33;99433.72;;;16.29;55.32
33506;BME280;19843;51.040;13.782;2024-03-02T12:48:01;99425.69;;;16.24;55.37
33506;BME280;19843;51.040;13.782;2024-03-02T12:50:30;99422.03;;;16.12;54.97
33506;BME280;19843;51.040;13.782;2024-03-02T12:52:58;99430.50;;;16.34;54.50
33506;BME280;19843;51.040;13.782;2024-03-02T12:55:25;99430.47;;;16.41;54.29
33506;BME280;19843;51.040;13.782;2024-03-02T12:57:55;99436.91;;;16.74;53.94